sensor_id;sensor_type;location;lat;lon;timestamp;P1;durP1;ratioP1;P2;durP2;ratioP2
77870;SDS011;67067;46.850;7.578;2023-05-10T18:40:32;0.50;;;0.50;;
77870;SDS011;67067;46.850;7.578;2023-05-10T18:41:36;1.58;;;0.57;;
77870;SDS011;67067;46.850;7.578;2023-05-10T18:42:38;0.30;;;0.30;;
77870;SDS011;67067;46.850;7.578;2023-05-10T18:43:40;2.65;;;0.90;;
77870;SDS011;67067;46.850;7.578;2023-05-10T18:44:43;0.40;;;0.40;;
77870;SDS011;67067;46.850;7.578;2023-05-10T18:45:44;2.17;;;0.60;;
77870;SDS011;67067;46.850;7.578;2023-05-10T18:47:54;0.60;;;0.60;;
77870;SDS011;67067;46.850;7.578;2023-05-10T18:48:58;0.52;;;0.52;;
77870;SDS011;67067;46.850;7.578;2023-05-10T18:50:01;0.40;;;0.40;;
77870;SDS011;67067;46.850;7.578;2023-05-10T18:51:06;0.70;;;0.70;;
77870;SDS011;67067;46.850;7.578;2023-05-10T18:52:10;1.75;;;0.57;;
77870;SDS011;67067;46.850;7.578;2023-05-10T18:53:13;2.08;;;0.90;;
77870;SDS011;67067;46.850;7.578;2023-05-10T18:54:15;0.32;;;0.32;;
77870;SDS011;67067;46.850;7.578;2023-05-10T18:55:20;2.42;;;0.60;;
77870;SDS011;67067;46.850;7.578;2023-05-10T18:56:21;0.80;;;0.68;;
77870;SDS011;67067;46.850;7.578;2023-05-10T18:57:23;0.40;;;0.40;;
77870;SDS011;67067;46.850;7.578;2023-05-10T18:58:28;2.63;;;0.68;;
77870;SDS011;67067;46.850;7.578;2023-05-10T18:59:30;1.65;;;0.65;;
77870;SDS011;67067;46.850;7.578;2023-05-10T19:01:34;1.27;;;0.77;;
77870;SDS011;67067;46.850;7.578;2023-05-10T19:02:39;0.70;;;0.52;;
77870;SDS011;67067;46.850;7.578;2023-05-10T19:03:44;0.40;;;0.40;;
77870;SDS011;67067;46.850;7.578;2023-05-10T19:04:45;2.20;;;0.65;;
77870;SDS011;67067;46.850;7.578;2023-05-10T19:05:47;0.75;;;0.68;;
77870;SDS011;67067;46.850;7.578;2023-05-10T19:06:52;2.50;;;0.80;;
77870;SDS011;67067;46.850;7.578;2023-05-10T19:07:56;2.13;;;0.52;;
77870;SDS011;67067;46.850;7.578;2023-05-10T19:09:59;0.75;;;0.75;;
77870;SDS011;67067;46.850;7.578;2023-05-10T19:12:02;0.87;;;0.80;;
77870;SDS011;67067;46.850;7.578;2023-05-10T19:13:07;1.45;;;0.60;;
77870;SDS011;67067;46.850;7.578;2023-05-10T19:14:13;0.57;;;0.57;;
77870;SDS011;67067;46.850;7.578;2023-05-10T19:15:16;1.02;;;0.68;;
77870;SDS011;67067;46.850;7.578;2023-05-10T19:16:22;3.45;;;1.48;;
77870;SDS011;67067;46.850;7.578;2023-05-10T19:17:24;1.05;;;0.75;;
77870;SDS011;67067;46.850;7.578;2023-05-10T19:18:29;0.90;;;0.57;;
77870;SDS011;67067;46.850;7.578;2023-05-10T19:19:35;0.63;;;0.60;;
77870;SDS011;67067;46.850;7.578;2023-05-10T19:20:39;1.45;;;0.75;;
77870;SDS011;67067;46.850;7.578;2023-05-10T19:21:42;0.77;;;0.73;;
77870;SDS011;67067;46.850;7.578;2023-05-10T19:22:48;1.83;;;1.08;;
77870;SDS011;67067;46.850;7.578;2023-05-10T19:24:09;0.88;;;0.70;;
77870;SDS011;67067;46.850;7.578;2023-05-10T19:25:12;0.68;;;0.45;;
77870;SDS011;67067;46.850;7.578;2023-05-10T19:26:17;0.88;;;0.60;;
77870;SDS011;67067;46.850;7.578;2023-05-10T19:27:19;1.25;;;0.60;;
77870;SDS011;67067;46.850;7.578;2023-05-10T19:28:21;1.83;;;0.63;;
77870;SDS011;67067;46.850;7.578;2023-05-10T19:29:23;3.13;;;1.30;;
77870;SDS011;67067;46.850;7.578;2023-05-10T19:30:26;0.50;;;0.50;;
77870;SDS011;67067;46.850;7.578;2023-05-10T19:31:29;2.03;;;0.85;;
77870;SDS011;67067;46.850;7.578;2023-05-10T19:32:32;1.38;;;0.38;;
77870;SDS011;67067;46.850;7.578;2023-05-10T19:33:38;1.90;;;0.57;;
77870;SDS011;67067;46.850;7.578;2023-05-10T19:34:41;0.52;;;0.52;;
77870;SDS011;67067;46.850;7.578;2023-05-10T19:35:43;3.05;;;1.20;;
77870;SDS011;67067;46.850;7.578;2023-05-10T19:36:46;3.05;;;1.10;;
77870;SDS011;67067;46.850;7.578;2023-05-10T19:37:49;1.55;;;1.20;;
77870;SDS011;67067;46.850;7.578;2023-05-10T19:38:53;9.30;;;4.25;;
77870;SDS011;67067;46.850;7.578;2023-05-10T19:39:56;23.95;;;10.52;;
77870;SDS011;67067;46.850;7.578;2023-05-10T19:41:01;11.73;;;4.93;;
77870;SDS011;67067;46.850;7.578;2023-05-10T19:42:04;11.38;;;4.80;;
77870;SDS011;67067;46.850;7.578;2023-05-10T19:43:06;7.85;;;3.00;;
77870;SDS011;67067;46.850;7.578;2023-05-10T19:44:10;3.95;;;2.53;;
77870;SDS011;67067;46.850;7.578;2023-05-10T19:45:12;3.42;;;1.42;;
77870;SDS011;67067;46.850;7.578;2023-05-10T19:46:17;9.30;;;2.15;;
77870;SDS011;67067;46.850;7.578;2023-05-10T19:47:20;1.58;;;0.93;;
77870;SDS011;67067;46.850;7.578;2023-05-10T19:48:23;1.00;;;0.80;;
77870;SDS011;67067;46.850;7.578;2023-05-10T19:49:25;0.98;;;0.90;;
77870;SDS011;67067;46.850;7.578;2023-05-10T19:50:29;1.27;;;0.95;;
77870;SDS011;67067;46.850;7.578;2023-05-10T19:51:31;3.33;;;1.25;;
77870;SDS011;67067;46.850;7.578;2023-05-10T19:52:33;1.85;;;1.30;;
77870;SDS011;67067;46.850;7.578;2023-05-10T19:53:34;5.85;;;1.02;;
77870;SDS011;67067;46.850;7.578;2023-05-10T19:55:38;0.65;;;0.65;;
77870;SDS011;67067;46.850;7.578;2023-05-10T19:56:42;1.85;;;0.80;;
77870;SDS011;67067;46.850;7.578;2023-05-10T19:57:44;3.55;;;0.85;;
77870;SDS011;67067;46.850;7.578;2023-05-10T19:58:46;2.35;;;0.93;;
77870;SDS011;67067;46.850;7.578;2023-05-10T19:59:48;0.82;;;0.80;;
77870;SDS011;67067;46.850;7.578;2023-05-10T20:01:51;1.52;;;0.73;;
77870;SDS011;67067;46.850;7.578;2023-05-10T20:03:54;3.67;;;0.93;;
77870;SDS011;67067;46.850;7.578;2023-05-10T20:04:57;1.25;;;0.90;;
77870;SDS011;67067;46.850;7.578;2023-05-10T20:07:00;0.52;;;0.52;;
77870;SDS011;67067;46.850;7.578;2023-05-10T20:09:06;0.68;;;0.68;;
77870;SDS011;67067;46.850;7.578;2023-05-10T20:10:10;0.57;;;0.57;;
77870;SDS011;67067;46.850;7.578;2023-05-10T20:11:12;0.50;;;0.50;;
77870;SDS011;67067;46.850;7.578;2023-05-10T20:13:15;0.70;;;0.70;;
77870;SDS011;67067;46.850;7.578;2023-05-10T20:15:21;0.70;;;0.70;;
77870;SDS011;67067;46.850;7.578;2023-05-10T20:16:23;1.02;;;0.77;;
77870;SDS011;67067;46.850;7.578;2023-05-10T20:17:29;1.85;;;0.63;;
77870;SDS011;67067;46.850;7.578;2023-05-10T20:18:31;1.17;;;0.60;;
77870;SDS011;67067;46.850;7.578;2023-05-10T20:19:33;1.83;;;0.70;;
77870;SDS011;67067;46.850;7.578;2023-05-10T20:20:34;0.60;;;0.60;;
77870;SDS011;67067;46.850;7.578;2023-05-10T20:21:39;1.55;;;0.70;;
77870;SDS011;67067;46.850;7.578;2023-05-10T20:23:45;3.70;;;0.70;;
77870;SDS011;67067;46.850;7.578;2023-05-10T20:24:49;1.92;;;1.20;;
77870;SDS011;67067;46.850;7.578;2023-05-10T20:25:56;2.38;;;0.70;;
77870;SDS011;67067;46.850;7.578;2023-05-10T20:26:58;1.42;;;0.75;;
77870;SDS011;67067;46.850;7.578;2023-05-10T20:28:00;1.08;;;0.70;;
77870;SDS011;67067;46.850;7.578;2023-05-10T20:30:04;3.03;;;1.10;;
77870;SDS011;67067;46.850;7.578;2023-05-10T20:31:08;2.45;;;1.00;;
77870;SDS011;67067;46.850;7.578;2023-05-10T20:32:12;1.67;;;1.10;;
77870;SDS011;67067;46.850;7.578;2023-05-10T20:33:17;2.92;;;1.65;;
77870;SDS011;67067;46.850;7.578;2023-05-10T20:34:23;1.70;;;0.82;;
77870;SDS011;67067;46.850;7.578;2023-05-10T20:35:25;1.08;;;0.60;;
77870;SDS011;67067;46.850;7.578;2023-05-10T20:37:28;3.85;;;0.73;;
77870;SDS011;67067;46.850;7.578;2023-05-10T20:38:33;3.35;;;0.60;;
77870;SDS011;67067;46.850;7.578;2023-05-10T20:39:35;0.63;;;0.63;;
77870;SDS011;67067;46.850;7.578;2023-05-10T20:40:37;4.07;;;0.80;;
77870;SDS011;67067;46.850;7.578;2023-05-10T20:42:40;1.30;;;0.70;;
77870;SDS011;67067;46.850;7.578;2023-05-10T20:44:43;0.65;;;0.65;;
77870;SDS011;67067;46.850;7.578;2023-05-10T20:46:47;1.67;;;0.70;;
77870;SDS011;67067;46.850;7.578;2023-05-10T20:47:49;0.63;;;0.40;;
77870;SDS011;67067;46.850;7.578;2023-05-10T20:48:50;2.05;;;0.82;;
77870;SDS011;67067;46.850;7.578;2023-05-10T20:49:52;0.52;;;0.45;;
77870;SDS011;67067;46.850;7.578;2023-05-10T20:50:53;2.15;;;0.88;;
77870;SDS011;67067;46.850;7.578;2023-05-10T20:52:59;2.13;;;0.80;;
77870;SDS011;67067;46.850;7.578;2023-05-10T20:55:04;0.50;;;0.50;;
77870;SDS011;67067;46.850;7.578;2023-05-10T20:56:06;1.77;;;0.68;;
77870;SDS011;67067;46.850;7.578;2023-05-10T20:58:15;0.60;;;0.60;;
77870;SDS011;67067;46.850;7.578;2023-05-10T20:59:17;1.15;;;0.70;;
77870;SDS011;67067;46.850;7.578;2023-05-10T21:00:19;2.88;;;0.47;;
77870;SDS011;67067;46.850;7.578;2023-05-10T21:01:21;0.85;;;0.52;;
77870;SDS011;67067;46.850;7.578;2023-05-10T21:02:23;2.00;;;1.00;;
